createdAt,value
2019-01-06T00:01:59.506Z,0.50
2019-01-06T00:16:10.031Z,0.67
2019-01-06T00:23:10.065Z,0.40
2019-01-06T00:26:44.518Z,0.57
2019-01-06T00:30:03.078Z,0.50
2019-01-06T00:33:38.322Z,0.50
2019-01-06T00:37:13.063Z,0.50
2019-01-06T00:40:47.845Z,0.50
2019-01-06T00:51:05.862Z,0.60
2019-01-06T00:54:40.563Z,0.70
2019-01-06T00:58:15.287Z,0.50
2019-01-06T01:01:49.723Z,0.60
2019-01-06T01:08:48.607Z,0.50
2019-01-06T01:12:23.299Z,0.67
2019-01-06T01:15:58.151Z,0.60
2019-01-06T01:19:15.778Z,0.50
2019-01-06T01:22:50.535Z,0.50
2019-01-06T01:26:07.962Z,0.60
2019-01-06T01:29:30.572Z,0.40
2019-01-06T01:33:05.222Z,0.50
2019-01-06T01:36:39.816Z,0.50
2019-01-06T01:40:14.225Z,0.60
2019-01-06T01:43:31.339Z,0.60
2019-01-06T01:50:35.663Z,0.60
2019-01-06T01:54:03.721Z,0.60
2019-01-06T02:01:07.710Z,0.60
2019-01-06T02:04:30.159Z,0.60
2019-01-06T02:08:12.044Z,0.80
2019-01-06T02:11:29.226Z,0.60
2019-01-06T02:15:03.699Z,0.60
2019-01-06T02:18:23.775Z,0.60
2019-01-06T02:21:58.852Z,0.50
2019-01-06T02:25:16.190Z,0.70
2019-01-06T02:28:31.408Z,0.40
2019-01-06T02:32:16.767Z,0.50
2019-01-06T02:39:33.905Z,0.50
2019-01-06T02:43:08.327Z,0.50
2019-01-06T02:46:28.178Z,0.57
2019-01-06T02:50:02.692Z,0.60
2019-01-06T02:53:23.349Z,0.50
2019-01-06T02:57:05.215Z,0.50
2019-01-06T03:00:39.855Z,0.60
2019-01-06T03:03:57.599Z,0.50
2019-01-06T03:07:15.451Z,0.50
2019-01-06T03:10:35.253Z,0.53
2019-01-06T03:13:55.976Z,0.60
2019-01-06T03:17:31.065Z,0.50
2019-01-06T03:28:02.982Z,0.40
2019-01-06T03:35:03.383Z,0.60
2019-01-06T03:38:24.124Z,0.50
2019-01-06T03:41:59.448Z,0.50
2019-01-06T03:45:34.197Z,0.50
2019-01-06T03:49:08.769Z,0.50
2019-01-06T03:52:44.123Z,0.50
2019-01-06T03:56:18.843Z,0.60
2019-01-06T03:59:53.272Z,0.60
2019-01-06T04:03:10.301Z,0.50
2019-01-06T04:06:28.057Z,0.60
2019-01-06T04:09:46.014Z,0.50
2019-01-06T04:13:27.909Z,0.50
2019-01-06T04:16:47.702Z,0.60
2019-01-06T04:23:52.054Z,0.50
2019-01-06T04:27:26.618Z,0.50
2019-01-06T04:30:43.709Z,0.60
2019-01-06T04:34:00.755Z,0.50
2019-01-06T04:44:47.431Z,0.50
2019-01-06T04:48:22.873Z,0.50
2019-01-06T04:51:57.551Z,0.60
2019-01-06T04:55:31.989Z,0.50
2019-01-06T05:02:36.195Z,0.60
2019-01-06T05:06:10.831Z,0.60
2019-01-06T05:13:15.741Z,0.60
2019-01-06T05:24:02.379Z,0.60
2019-01-06T05:27:20.559Z,0.50
2019-01-06T05:30:38.702Z,0.50
2019-01-06T05:34:20.574Z,0.53
2019-01-06T05:37:37.476Z,0.50
2019-01-06T05:48:11.285Z,0.50
2019-01-06T05:51:45.807Z,0.40
2019-01-06T05:55:02.881Z,0.60
2019-01-06T06:01:55.728Z,0.40
2019-01-06T06:05:30.257Z,0.50
2019-01-06T06:09:04.890Z,0.40
2019-01-06T06:12:22.095Z,0.53
2019-01-06T06:15:56.724Z,0.60
2019-01-06T06:19:31.374Z,0.40
2019-01-06T06:22:51.456Z,0.50
2019-01-06T06:26:25.971Z,0.60
2019-01-06T06:30:00.711Z,0.60
2019-01-06T06:37:17.982Z,0.50
2019-01-06T06:40:34.883Z,0.40
2019-01-06T06:43:54.845Z,0.50
2019-01-06T06:47:29.321Z,0.60
2019-01-06T06:50:46.807Z,0.57
2019-01-06T06:54:21.337Z,0.50
2019-01-06T07:01:34.382Z,0.50
2019-01-06T07:04:51.482Z,0.50
2019-01-06T07:08:11.560Z,0.60
2019-01-06T07:11:32.224Z,0.50
2019-01-06T07:15:07.519Z,0.50
2019-01-06T07:18:27.595Z,0.47
2019-01-06T07:21:47.957Z,0.57
2019-01-06T07:25:08.883Z,0.50
2019-01-06T07:28:50.750Z,0.50
2019-01-06T07:32:07.619Z,0.50
2019-01-06T07:35:27.192Z,0.53
2019-01-06T07:38:44.075Z,0.50
2019-01-06T07:42:18.687Z,0.50
2019-01-06T07:45:53.455Z,0.50
2019-01-06T07:49:28.213Z,0.40
2019-01-06T07:53:02.671Z,0.40
2019-01-06T07:56:20.033Z,0.50
2019-01-06T07:59:54.388Z,0.50
2019-01-06T08:03:28.989Z,0.47
2019-01-06T08:07:03.646Z,0.63
2019-01-06T08:10:38.156Z,0.60
2019-01-06T08:17:40.389Z,0.50
2019-01-06T08:21:14.943Z,0.60
2019-01-06T08:28:32.283Z,0.40
2019-01-06T08:32:07.342Z,0.40
2019-01-06T08:35:41.933Z,0.50
2019-01-06T08:39:16.362Z,0.53
2019-01-06T08:42:33.690Z,0.53
2019-01-06T08:46:08.854Z,0.60
2019-01-06T08:49:44.094Z,0.50
2019-01-06T08:53:00.928Z,0.50
2019-01-06T08:56:35.441Z,0.50
2019-01-06T08:59:55.124Z,0.60
2019-01-06T09:03:30.022Z,0.60
2019-01-06T09:06:46.954Z,0.50
2019-01-06T09:10:04.495Z,0.50
2019-01-06T09:13:39.044Z,0.53
2019-01-06T09:17:13.986Z,0.40
2019-01-06T09:23:55.453Z,0.60
2019-01-06T09:30:42.061Z,0.53
2019-01-06T09:34:23.932Z,0.57
2019-01-06T09:37:58.737Z,0.70
2019-01-06T09:41:16.320Z,0.60
2019-01-06T09:44:51.008Z,0.50
2019-01-06T09:48:08.391Z,0.63
2019-01-06T09:51:42.917Z,0.50
2019-01-06T09:58:44.780Z,0.50
2019-01-06T10:02:02.247Z,0.60
2019-01-06T10:05:36.755Z,0.70
2019-01-06T10:08:53.879Z,0.50
2019-01-06T10:12:28.423Z,0.60
2019-01-06T10:19:15.260Z,0.67
2019-01-06T10:26:27.006Z,0.53
2019-01-06T10:30:08.878Z,0.70
2019-01-06T10:33:26.194Z,0.60
2019-01-06T10:37:00.564Z,0.60
2019-01-06T10:40:18.039Z,0.80
2019-01-06T10:43:53.695Z,0.70
2019-01-06T10:47:10.878Z,0.60
2019-01-06T10:50:28.389Z,0.60
2019-01-06T10:53:45.776Z,0.50
2019-01-06T10:57:03.582Z,0.60
2019-01-06T11:00:38.878Z,0.60
2019-01-06T11:03:55.812Z,0.70
2019-01-06T11:11:00.819Z,0.80
2019-01-06T11:18:02.559Z,0.50
2019-01-06T11:21:19.560Z,0.70
2019-01-06T11:24:53.986Z,0.80
2019-01-06T11:28:28.555Z,0.80
2019-01-06T11:32:03.103Z,0.70
2019-01-06T11:39:20.247Z,0.60
2019-01-06T11:42:55.113Z,0.60
2019-01-06T11:46:15.194Z,0.60
2019-01-06T11:56:30.543Z,0.50
2019-01-06T12:00:05.103Z,0.70
2019-01-06T12:03:25.059Z,0.50
2019-01-06T12:06:42.081Z,0.50
2019-01-06T12:09:58.943Z,0.57
2019-01-06T12:13:18.753Z,0.80
2019-01-06T12:16:53.323Z,0.60
2019-01-06T12:20:27.927Z,0.70
2019-01-06T12:23:44.999Z,0.50
2019-01-06T12:27:02.762Z,0.60
2019-01-06T12:30:37.600Z,0.60
2019-01-06T12:34:12.338Z,0.60
2019-01-06T12:37:47.208Z,0.70
2019-01-06T12:41:04.086Z,0.60
2019-01-06T12:44:44.704Z,0.70
2019-01-06T12:48:15.766Z,0.50
2019-01-06T12:51:50.511Z,0.57
2019-01-06T12:58:54.423Z,0.57
2019-01-06T13:02:28.943Z,0.60
2019-01-06T13:06:03.427Z,1.00
2019-01-06T13:09:20.690Z,0.60
2019-01-06T13:12:25.650Z,0.57
2019-01-06T13:15:30.578Z,0.67
2019-01-06T13:19:12.471Z,0.50
2019-01-06T13:29:50.874Z,0.60
2019-01-06T13:33:26.287Z,0.40
2019-01-06T13:37:01.312Z,0.67
2019-01-06T13:40:44.835Z,0.60
2019-01-06T13:44:26.768Z,0.70
2019-01-06T13:48:01.403Z,0.50
2019-01-06T13:55:01.204Z,0.60
2019-01-06T13:58:35.734Z,0.60
2019-01-06T14:02:10.394Z,0.70
2019-01-06T14:09:09.613Z,0.60
2019-01-06T14:12:44.173Z,0.60
2019-01-06T14:16:18.736Z,0.60
2019-01-06T14:19:53.565Z,0.60
2019-01-06T14:23:28.590Z,0.60
2019-01-06T14:27:03.304Z,0.80
2019-01-06T14:30:23.535Z,0.60
2019-01-06T14:33:44.054Z,0.60
2019-01-06T14:37:19.117Z,0.60
2019-01-06T14:40:39.558Z,0.60
2019-01-06T14:47:44.467Z,0.60
2019-01-06T14:51:19.170Z,0.80
2019-01-06T14:54:53.713Z,0.67
2019-01-06T14:58:10.764Z,0.70
2019-01-06T15:01:45.415Z,0.60
2019-01-06T15:05:04.950Z,0.80
2019-01-06T15:08:39.779Z,0.80
2019-01-06T15:12:14.517Z,0.70
2019-01-06T15:15:49.062Z,0.67
2019-01-06T15:19:11.504Z,0.90
2019-01-06T15:22:53.379Z,0.80
2019-01-06T15:26:28.584Z,0.90
2019-01-06T15:30:03.426Z,0.83
2019-01-06T15:33:38.360Z,0.70
2019-01-06T15:36:58.079Z,0.90
2019-01-06T15:40:32.847Z,0.70
2019-01-06T15:44:07.685Z,0.70
2019-01-06T15:51:06.569Z,1.00
2019-01-06T15:54:41.161Z,0.73
2019-01-06T16:01:40.814Z,0.80
2019-01-06T16:05:15.343Z,0.83
2019-01-06T16:12:19.021Z,0.90
2019-01-06T16:15:38.919Z,1.00
2019-01-06T16:19:13.569Z,0.80
2019-01-06T16:22:48.378Z,0.70
2019-01-06T16:26:23.090Z,0.87
2019-01-06T16:29:58.110Z,0.73
2019-01-06T16:33:32.546Z,0.83
2019-01-06T16:37:07.335Z,0.80
2019-01-06T16:40:29.844Z,0.90
2019-01-06T16:44:11.721Z,0.77
2019-01-06T16:47:28.877Z,0.63
2019-01-06T16:50:48.707Z,0.70
2019-01-06T16:54:05.570Z,0.80
2019-01-06T17:01:17.695Z,0.90
2019-01-06T17:08:06.446Z,0.80
2019-01-06T17:11:23.895Z,0.80
2019-01-06T17:14:40.822Z,0.90
2019-01-06T17:18:00.838Z,0.80
2019-01-06T17:21:35.465Z,0.70
2019-01-06T17:25:10.473Z,0.73
2019-01-06T17:28:45.113Z,0.90
2019-01-06T17:32:04.986Z,0.83
2019-01-06T17:35:39.942Z,0.70
2019-01-06T17:42:29.753Z,1.00
2019-01-06T17:45:46.797Z,0.80
2019-01-06T17:49:22.434Z,0.80
2019-01-06T17:52:56.827Z,1.10
2019-01-06T17:56:33.029Z,1.13
2019-01-06T18:00:07.687Z,0.70
2019-01-06T18:03:42.985Z,0.70
2019-01-06T18:06:59.899Z,0.77
2019-01-06T18:10:34.562Z,0.80
2019-01-06T18:13:57.038Z,0.97
2019-01-06T18:17:17.336Z,0.80
2019-01-06T18:20:52.269Z,0.93
2019-01-06T18:24:27.634Z,1.00
2019-01-06T18:27:47.797Z,0.80
2019-01-06T18:31:08.041Z,0.73
2019-01-06T18:34:27.971Z,1.00
2019-01-06T18:38:02.887Z,0.80
2019-01-06T18:41:37.600Z,1.00
2019-01-06T18:52:04.467Z,1.10
2019-01-06T18:55:39.809Z,0.83
2019-01-06T18:58:57.145Z,1.00
2019-01-06T19:02:14.435Z,0.80
2019-01-06T19:05:49.296Z,0.87
2019-01-06T19:09:06.751Z,0.90
2019-01-06T19:12:41.941Z,0.80
2019-01-06T19:15:59.025Z,0.90
2019-01-06T19:22:58.786Z,1.00
2019-01-06T19:26:18.267Z,0.73
2019-01-06T19:29:53.334Z,0.80
2019-01-06T19:33:28.114Z,1.00
2019-01-06T19:36:48.058Z,1.10
2019-01-06T19:40:05.402Z,1.00
2019-01-06T19:47:04.955Z,1.00
2019-01-06T19:50:41.538Z,1.00
2019-01-06T19:57:59.952Z,0.90
2019-01-06T20:01:35.114Z,0.90
2019-01-06T20:04:52.744Z,1.00
2019-01-06T20:08:12.871Z,1.10
2019-01-06T20:11:47.524Z,1.10
2019-01-06T20:15:09.965Z,1.13
2019-01-06T20:18:45.235Z,0.80
2019-01-06T20:22:20.167Z,0.90
2019-01-06T20:25:54.576Z,1.07
2019-01-06T20:29:11.930Z,0.93
2019-01-06T20:32:34.394Z,1.00
2019-01-06T20:36:16.279Z,0.90
2019-01-06T20:39:58.151Z,0.90
2019-01-06T20:43:40.042Z,0.83
2019-01-06T20:46:57.669Z,0.90
2019-01-06T20:50:32.505Z,0.90
2019-01-06T20:53:52.577Z,1.00
2019-01-06T21:00:42.237Z,1.07
2019-01-06T21:07:59.290Z,0.90
2019-01-06T21:15:02.312Z,0.70
2019-01-06T21:18:44.210Z,0.80
2019-01-06T21:22:03.805Z,1.00
2019-01-06T21:28:56.044Z,1.10
2019-01-06T21:32:13.208Z,1.00
2019-01-06T21:35:28.441Z,0.90
2019-01-06T21:38:45.847Z,1.03
2019-01-06T21:42:20.279Z,1.03
2019-01-06T21:45:37.087Z,1.00
2019-01-06T21:49:11.535Z,1.20
2019-01-06T21:52:46.237Z,1.20
2019-01-06T21:56:03.486Z,1.00
2019-01-06T21:59:38.214Z,0.90
2019-01-06T22:02:57.766Z,1.00
2019-01-06T22:06:14.785Z,1.10
2019-01-06T22:17:00.816Z,1.00
2019-01-06T22:20:35.328Z,1.10
2019-01-06T22:27:40.167Z,0.97
2019-01-06T22:31:14.935Z,1.00
2019-01-06T22:34:49.703Z,0.90
2019-01-06T22:38:24.518Z,0.87
2019-01-06T22:41:59.101Z,1.00
2019-01-06T22:45:19.619Z,0.93
2019-01-06T22:48:40.571Z,0.90
2019-01-06T22:52:22.453Z,1.00
2019-01-06T22:55:57.001Z,0.90
2019-01-06T22:59:31.462Z,1.00
2019-01-06T23:02:48.403Z,1.10
2019-01-06T23:06:22.884Z,0.80
2019-01-06T23:13:12.607Z,0.80
2019-01-06T23:16:54.494Z,0.90
2019-01-06T23:20:14.182Z,1.03
2019-01-06T23:23:34.781Z,1.00
2019-01-06T23:26:54.474Z,1.20
2019-01-06T23:30:14.402Z,1.10
2019-01-06T23:33:34.224Z,0.90
2019-01-06T23:37:09.054Z,1.20
2019-01-06T23:40:44.158Z,1.00
2019-01-06T23:44:18.806Z,0.70
2019-01-06T23:47:36.030Z,0.90
2019-01-06T23:51:11.359Z,1.30
2019-01-06T23:54:45.925Z,0.97
2019-01-06T23:58:20.670Z,1.00
